Waterloo, Canada
Current Conditions -  °F | °C
As of 4:00 PM on Thursday 18 Dec 2014 (Local Time) from CYKF Reporting Station
Overcast Overcast  
Wind Chill: 15°   Ceiling: 1000
Heat Index: 27°   Visibility: 9mi
Dew Point: 23°   Wind: 14mph
Humidity: 86%   Direction: 310°NW
Pressure: 30.07"   Gusts: NA
Location:  43.46°N, 80.52°W
Report Text: CYKF 182100Z AUTO 31012KT 9SM OVC010 M03/M05 A3007 RMK SLP195
Loading
Personal Weather Stations






























Interactive Weather Map New forecast layout! Learn more

10-Day Weather Forecast

Advertisements
Track Severe Weather on mobile